Terminal Aerodrome Forecast
Issued by NWS Wilmington, OH

Current Version | Previous Version | Text Only | Print | Product List | Glossary Off
Versions: 1 2 3 4 5 6 7 8 9 10 11 12 13 14 15 16 17

000
FTUS41 KILN 012341
TAFILN
TAF
KILN 012341Z 0200/0224 29007KT P6SM FEW070 SCT250
     FM020200 24004KT P6SM BKN250
     FM021500 24011KT P6SM SCT050 SCT200=

USA.gov is the U.S. government's official web portal to all federal, state and local government web resources and services.